Abernathy, Texas
Current Conditions -  °F | °C
As of 9:53 AM on Saturday 20 Dec 2014 (Local Time) from KLBB Reporting Station
Haze Haze  
Wind Chill: 33°   Ceiling: 500
Heat Index: 39°   Visibility: 5mi
Dew Point: 36°   Wind: 8mph
Humidity: 89%   Direction: 200°SSW
Pressure: 30.16"   Gusts: NA
Location:  33.83°N, 101.84°W
Report Text: KLBB 201553Z 20007KT 5SM BR FEW000 OVC005 04/02 A3016 RMK AO2 SLP213 BR FEW000 T00390022
Loading
Personal Weather Stations






























Interactive Weather Map New forecast layout! Learn more

10-Day Weather Forecast

Advertisements
Track Severe Weather on mobile